Time;durP1;ratioP1;P1;durP2;ratioP2;P2;SDS_P1;SDS_P2;PMS_P1;PMS_P2;Temp;Humidity;BMP_temperature;BMP_pressure;BME280_temperature;BME280_humidity;BME280_pressure;Samples;Min_cycle;Max_cycle;Signal;HPM_P1;HPM_P2
2022/11/08 00:01:30;;;;;;;45.13;19.88;;;12.20;99.90;;;;;;5066590;28;20083;-78
2022/11/08 00:03:06;;;;;;;56.47;20.20;;;12.20;99.90;;;;;;5070191;28;20040;-78
2022/11/08 00:13:59;;;;;;;66.13;18.88;;;12.30;99.90;;;;;;5064456;28;20048;-79
2022/11/08 00:16:25;;;;;;;64.97;19.63;;;12.30;99.90;;;;;;5062735;28;20464;-79
2022/11/08 00:18:51;;;;;;;63.63;19.65;;;12.30;99.90;;;;;;5057869;28;20070;-77
2022/11/08 00:21:16;;;;;;;52.08;17.65;;;12.20;99.90;;;;;;5072831;28;20024;-78
2022/11/08 00:23:42;;;;;;;62.67;18.85;;;12.30;99.90;;;;;;5070364;28;20095;-78
2022/11/08 00:26:08;;;;;;;60.85;18.98;;;12.30;99.90;;;;;;5074472;28;20050;-78
2022/11/08 00:28:34;;;;;;;63.95;20.45;;;12.20;99.90;;;;;;5068892;28;20077;-79
2022/11/08 00:31:04;;;;;;;58.17;17.48;;;12.30;99.90;;;;;;5074559;28;20134;-78
2022/11/08 00:33:30;;;;;;;54.58;16.95;;;12.30;99.90;;;;;;5071919;28;20431;-78
2022/11/08 00:35:58;;;;;;;53.97;14.85;;;12.20;99.90;;;;;;5070255;28;20024;-78
2022/11/08 00:38:23;;;;;;;51.13;13.00;;;12.20;99.90;;;;;;5066463;28;20498;-79
2022/11/08 00:40:49;;;;;;;62.25;14.35;;;12.30;99.90;;;;;;5064660;28;20037;-79
2022/11/08 00:43:14;;;;;;;55.05;13.30;;;12.30;99.90;;;;;;5067918;28;20059;-77
2022/11/08 00:45:40;;;;;;;58.72;12.52;;;12.30;99.90;;;;;;5072259;28;20063;-78
2022/11/08 00:48:05;;;;;;;57.22;13.07;;;12.30;99.90;;;;;;5073365;28;20033;-79
2022/11/08 00:50:31;;;;;;;49.67;11.90;;;12.20;99.90;;;;;;5076930;28;20036;-77
2022/11/08 00:52:56;;;;;;;48.75;11.88;;;12.20;99.90;;;;;;5077659;28;20068;-77
2022/11/08 00:55:22;;;;;;;48.70;11.88;;;12.20;99.90;;;;;;5060766;28;20025;-77
2022/11/08 00:57:47;;;;;;;41.85;11.15;;;12.30;99.90;;;;;;5045728;28;20396;-76
2022/11/08 01:00:13;;;;;;;50.95;11.60;;;12.30;99.90;;;;;;5068451;28;20484;-78
2022/11/08 01:02:39;;;;;;;50.45;10.93;;;12.30;99.90;;;;;;5069969;28;20113;-78
2022/11/08 01:05:05;;;;;;;48.25;11.25;;;12.30;99.90;;;;;;5067268;28;20067;-77
2022/11/08 01:07:30;;;;;;;49.30;10.13;;;12.30;99.90;;;;;;5071839;28;20041;-78
2022/11/08 01:09:56;;;;;;;53.53;9.85;;;12.30;99.90;;;;;;5078098;28;20046;-77
2022/11/08 01:12:21;;;;;;;54.97;10.68;;;12.30;99.90;;;;;;5068925;28;20023;-78
2022/11/08 01:14:47;;;;;;;55.28;9.30;;;12.30;99.90;;;;;;5069869;28;20029;-79
2022/11/08 01:17:12;;;;;;;60.42;11.20;;;12.30;99.90;;;;;;5076387;28;20021;-78
2022/11/08 01:19:38;;;;;;;43.97;9.85;;;12.30;99.90;;;;;;5068392;28;20028;-78
2022/11/08 01:22:03;;;;;;;45.60;9.02;;;12.30;99.90;;;;;;5067215;28;20029;-78
2022/11/08 01:24:29;;;;;;;53.03;9.20;;;12.30;99.90;;;;;;5066381;28;20051;-78
2022/11/08 01:26:54;;;;;;;50.42;8.63;;;12.30;99.90;;;;;;5065055;28;20032;-79
2022/11/08 01:29:20;;;;;;;47.10;8.32;;;12.20;99.90;;;;;;5064056;28;20037;-79
2022/11/08 01:31:45;;;;;;;37.60;9.95;;;12.20;99.90;;;;;;5066769;28;20028;-78
2022/11/08 01:34:11;;;;;;;51.65;8.65;;;12.30;99.90;;;;;;5077891;28;20013;-79
2022/11/08 01:36:36;;;;;;;61.75;9.68;;;12.30;99.90;;;;;;5078520;28;20555;-77
2022/11/08 01:39:02;;;;;;;41.45;7.85;;;12.30;99.90;;;;;;5065511;28;20056;-78
2022/11/08 01:41:27;;;;;;;46.53;8.70;;;12.20;99.90;;;;;;5077670;28;20032;-78
2022/11/08 01:43:57;;;;;;;63.92;8.25;;;12.30;99.90;;;;;;5075720;28;20126;-78
2022/11/08 01:46:35;;;;;;;41.72;8.63;;;12.30;99.90;;;;;;5067043;28;20012;-78
2022/11/08 01:49:38;;;;;;;36.47;8.32;;;12.30;99.90;;;;;;5064539;28;20033;-78
2022/11/08 01:52:21;;;;;;;48.05;8.52;;;12.30;99.90;;;;;;5065343;28;20017;-78
2022/11/08 01:55:12;;;;;;;47.20;9.27;;;12.30;99.90;;;;;;5063650;28;20025;-79
2022/11/08 01:57:46;;;;;;;40.67;7.65;;;12.20;99.90;;;;;;5064519;28;20025;-78
2022/11/08 02:00:12;;;;;;;38.20;7.20;;;12.20;99.90;;;;;;5085273;28;20031;-78
2022/11/08 02:02:41;;;;;;;46.53;9.73;;;12.20;99.90;;;;;;5070790;28;20021;-78
2022/11/08 02:05:23;;;;;;;38.70;7.88;;;12.20;99.90;;;;;;5064820;28;20025;-78
2022/11/08 02:07:54;;;;;;;49.65;7.60;;;12.20;99.90;;;;;;5064446;28;20171;-78
2022/11/08 02:10:23;;;;;;;51.92;7.95;;;12.20;99.90;;;;;;5063277;28;20033;-78
2022/11/08 02:12:50;;;;;;;33.28;6.22;;;12.20;99.90;;;;;;5063701;28;20029;-78
2022/11/08 02:15:18;;;;;;;42.33;7.72;;;12.10;99.90;;;;;;5064968;28;20025;-78
2022/11/08 02:17:43;;;;;;;37.33;7.57;;;12.20;99.90;;;;;;5069398;28;20495;-78
2022/11/08 02:20:09;;;;;;;35.63;8.95;;;12.20;99.90;;;;;;5084056;28;20028;-79
2022/11/08 02:22:44;;;;;;;48.78;7.20;;;12.20;99.90;;;;;;5085041;28;20025;-78
2022/11/08 02:25:10;;;;;;;32.08;7.80;;;12.20;99.90;;;;;;5085222;28;20373;-79
2022/11/08 02:27:35;;;;;;;46.40;7.75;;;12.20;99.90;;;;;;5084327;28;20036;-79
2022/11/08 02:30:01;;;;;;;37.67;6.35;;;12.20;99.90;;;;;;5082309;28;20111;-78
2022/11/08 02:32:36;;;;;;;40.22;7.90;;;12.20;99.90;;;;;;5057700;28;20021;-79
2022/11/08 02:35:05;;;;;;;51.53;7.63;;;12.20;99.90;;;;;;5062925;28;20028;-77
2022/11/08 02:37:30;;;;;;;26.48;7.13;;;12.20;99.90;;;;;;5063700;28;20021;-78
2022/11/08 02:39:56;;;;;;;29.05;5.70;;;12.20;99.90;;;;;;5068137;28;20128;-78
2022/11/08 02:42:21;;;;;;;37.22;6.75;;;12.20;99.90;;;;;;5069421;28;20047;-78
2022/11/08 02:44:48;;;;;;;33.35;7.15;;;12.20;99.90;;;;;;5070413;28;20032;-78
2022/11/08 02:47:14;;;;;;;30.05;5.53;;;12.20;99.90;;;;;;5068646;28;20033;-78
2022/11/08 02:49:39;;;;;;;40.67;7.43;;;12.20;99.90;;;;;;5068308;28;20113;-78
2022/11/08 02:52:05;;;;;;;28.95;5.82;;;12.20;99.90;;;;;;5068939;28;20044;-78
2022/11/08 02:54:31;;;;;;;37.97;6.00;;;12.20;99.90;;;;;;5067814;28;20059;-78
2022/11/08 02:56:56;;;;;;;34.75;6.47;;;12.20;99.90;;;;;;5069541;28;20028;-77
2022/11/08 02:59:22;;;;;;;38.15;5.93;;;12.10;99.90;;;;;;5067525;28;20021;-79
2022/11/08 03:01:47;;;;;;;43.13;8.07;;;12.10;99.90;;;;;;5068085;28;20046;-79
2022/11/08 03:04:13;;;;;;;48.20;6.10;;;12.10;99.90;;;;;;5067080;28;20028;-78
2022/11/08 03:06:38;;;;;;;25.77;6.10;;;12.10;99.90;;;;;;5068105;28;20033;-79
2022/11/08 03:09:04;;;;;;;42.03;6.43;;;12.10;99.90;;;;;;5068224;28;20029;-77
2022/11/08 03:11:30;;;;;;;47.50;6.78;;;12.00;99.90;;;;;;5067898;28;20080;-78
2022/11/08 03:13:56;;;;;;;29.50;6.75;;;12.10;99.90;;;;;;5067215;28;20032;-79
2022/11/08 03:16:21;;;;;;;41.08;7.65;;;12.00;99.90;;;;;;5066231;28;20511;-79
2022/11/08 03:18:47;;;;;;;32.10;6.90;;;12.10;99.90;;;;;;5068062;28;20500;-78
2022/11/08 03:21:12;;;;;;;26.35;6.15;;;12.00;99.90;;;;;;5068537;28;20029;-79
2022/11/08 03:23:38;;;;;;;26.63;5.13;;;12.00;99.90;;;;;;5068168;28;20031;-78
2022/11/08 03:26:04;;;;;;;34.58;5.63;;;12.00;99.90;;;;;;5067802;28;20042;-79
2022/11/08 03:28:30;;;;;;;32.28;6.07;;;12.00;99.90;;;;;;5066402;28;20021;-78
2022/11/08 03:30:55;;;;;;;27.13;6.63;;;12.00;99.90;;;;;;5068019;28;20079;-77
2022/11/08 03:33:21;;;;;;;34.67;5.53;;;12.00;99.90;;;;;;5067966;28;20024;-79
2022/11/08 03:35:47;;;;;;;33.80;6.57;;;12.00;99.90;;;;;;5067055;28;20480;-78
2022/11/08 03:38:14;;;;;;;30.98;5.93;;;12.00;99.90;;;;;;5068043;28;20035;-79
2022/11/08 03:40:39;;;;;;;25.25;4.97;;;12.00;99.90;;;;;;5066787;28;20025;-78
2022/11/08 03:43:05;;;;;;;28.00;5.18;;;11.90;99.90;;;;;;5082817;28;20029;-78
2022/11/08 03:45:30;;;;;;;30.60;6.18;;;11.90;99.90;;;;;;5068020;28;20037;-77
2022/11/08 03:47:57;;;;;;;22.45;4.53;;;11.90;99.90;;;;;;5065709;28;20021;-78
2022/11/08 03:50:22;;;;;;;25.75;4.80;;;11.90;99.90;;;;;;5067027;28;20081;-78
2022/11/08 03:52:50;;;;;;;27.50;4.47;;;12.00;99.90;;;;;;5066952;28;20021;-79
2022/11/08 03:55:17;;;;;;;25.10;4.90;;;12.00;99.90;;;;;;5065529;28;20021;-78
2022/11/08 03:57:44;;;;;;;27.50;5.28;;;12.00;99.90;;;;;;5067006;28;20025;-78
2022/11/08 04:00:12;;;;;;;35.67;4.75;;;12.00;99.90;;;;;;5064526;28;20156;-78
2022/11/08 04:02:38;;;;;;;25.85;4.75;;;12.00;99.90;;;;;;5066282;28;20021;-79
2022/11/08 04:05:05;;;;;;;19.85;4.72;;;12.10;99.90;;;;;;5067194;28;20028;-78
2022/11/08 04:07:30;;;;;;;30.70;4.70;;;12.10;99.90;;;;;;5082195;28;20054;-78
2022/11/08 04:09:56;;;;;;;21.73;4.28;;;12.10;99.90;;;;;;5066499;28;20481;-77
2022/11/08 04:15:14;;;;;;;19.90;4.40;;;12.10;99.90;;;;;;5066979;28;20047;-78
2022/11/08 04:23:17;;;;;;;35.85;5.65;;;12.20;99.90;;;;;;5067676;28;20037;-79
2022/11/08 04:25:44;;;;;;;35.15;4.45;;;12.20;99.90;;;;;;5074963;28;20025;-78
2022/11/08 04:28:11;;;;;;;24.75;3.80;;;12.20;99.90;;;;;;5064992;28;20131;-78
2022/11/08 04:30:37;;;;;;;33.85;5.30;;;12.20;99.90;;;;;;5065580;28;20507;-77
2022/11/08 04:33:03;;;;;;;14.57;4.07;;;12.20;99.90;;;;;;5066278;28;20017;-78
2022/11/08 04:35:30;;;;;;;29.73;5.00;;;12.20;99.90;;;;;;5066255;28;20017;-78
2022/11/08 04:38:00;;;;;;;34.00;4.97;;;12.20;99.90;;;;;;5065202;28;20029;-78
2022/11/08 04:40:26;;;;;;;21.40;4.43;;;12.20;99.90;;;;;;5096523;23;20492;-74
2022/11/08 04:42:54;;;;;;;19.67;3.92;;;12.20;99.90;;;;;;5075116;28;20031;-74
2022/11/08 04:45:19;;;;;;;22.15;3.60;;;12.20;99.90;;;;;;5074599;28;20399;-74
2022/11/08 04:47:46;;;;;;;26.17;4.03;;;12.20;99.90;;;;;;5075345;28;20116;-74
2022/11/08 04:50:12;;;;;;;21.42;3.72;;;12.20;99.90;;;;;;5074851;28;20054;-74
2022/11/08 04:52:37;;;;;;;20.08;4.53;;;12.20;99.90;;;;;;5075005;28;20103;-74
2022/11/08 04:55:03;;;;;;;26.15;4.18;;;12.20;99.90;;;;;;5074619;28;20474;-74
2022/11/08 04:57:29;;;;;;;33.90;6.93;;;12.20;99.90;;;;;;5075863;28;20026;-74
2022/11/08 04:59:54;;;;;;;26.98;4.95;;;12.10;99.90;;;;;;5076131;28;20075;-74
2022/11/08 05:02:20;;;;;;;17.50;3.38;;;12.20;99.90;;;;;;5075288;28;20059;-74
2022/11/08 05:04:45;;;;;;;22.90;4.97;;;12.10;99.90;;;;;;5075450;28;20062;-74
2022/11/08 05:07:11;;;;;;;26.70;4.47;;;12.10;99.90;;;;;;5074920;28;20035;-74
2022/11/08 05:09:36;;;;;;;24.42;3.97;;;12.10;99.90;;;;;;5074710;28;20490;-74
2022/11/08 05:12:02;;;;;;;19.10;3.78;;;12.10;99.90;;;;;;5074522;28;20069;-74
2022/11/08 05:14:27;;;;;;;20.73;3.78;;;12.10;99.90;;;;;;5074529;28;20070;-74
2022/11/08 05:16:53;;;;;;;19.15;3.90;;;12.10;99.90;;;;;;5074876;28;20027;-74
2022/11/08 05:23:22;;;;;;;18.80;3.70;;;12.10;99.90;;;;;;5074662;28;20125;-74
2022/11/08 05:25:03;;;;;;;18.88;4.25;;;12.00;99.90;;;;;;5037180;28;20056;-74
2022/11/08 05:27:28;;;;;;;21.77;3.60;;;12.00;99.90;;;;;;5073176;28;20476;-75
2022/11/08 05:29:54;;;;;;;37.15;4.97;;;12.00;99.90;;;;;;5073632;28;20029;-74
2022/11/08 05:32:19;;;;;;;16.17;3.60;;;12.00;99.90;;;;;;5074642;28;20025;-74
2022/11/08 05:34:45;;;;;;;19.85;3.92;;;12.00;99.90;;;;;;5074319;28;20024;-74
2022/11/08 05:37:10;;;;;;;19.02;3.45;;;12.00;99.90;;;;;;5074099;28;20031;-74
2022/11/08 05:39:36;;;;;;;22.92;4.65;;;12.00;99.90;;;;;;5073678;28;20408;-74
2022/11/08 05:42:05;;;;;;;27.10;4.47;;;12.10;99.90;;;;;;5074479;28;20031;-74
2022/11/08 05:44:30;;;;;;;23.05;4.55;;;12.00;99.90;;;;;;5073950;28;20024;-74
2022/11/08 05:46:56;;;;;;;19.90;3.75;;;12.00;99.90;;;;;;5056144;28;20116;-74
2022/11/08 05:49:21;;;;;;;21.30;4.57;;;12.00;99.90;;;;;;5073411;28;20028;-74
2022/11/08 05:51:47;;;;;;;20.48;3.95;;;12.00;99.90;;;;;;5073734;28;20029;-75
2022/11/08 05:54:12;;;;;;;25.05;4.60;;;12.00;99.90;;;;;;5073787;28;20025;-74
2022/11/08 05:56:38;;;;;;;21.90;5.03;;;12.00;99.90;;;;;;5073760;28;20021;-74
2022/11/08 05:59:04;;;;;;;19.33;3.90;;;12.00;99.90;;;;;;5073252;28;20032;-75
2022/11/08 06:01:30;;;;;;;23.50;4.10;;;12.00;99.90;;;;;;5074050;28;20119;-75
2022/11/08 06:03:55;;;;;;;22.08;4.60;;;11.90;99.90;;;;;;5073650;28;20507;-75
2022/11/08 06:06:22;;;;;;;25.33;5.22;;;11.90;99.90;;;;;;5073954;28;20024;-75
2022/11/08 06:08:48;;;;;;;28.30;4.68;;;12.00;99.90;;;;;;5070606;28;20027;-75
2022/11/08 06:11:22;;;;;;;26.38;5.50;;;11.90;99.90;;;;;;5055418;28;20028;-74
2022/11/08 06:13:48;;;;;;;19.27;4.45;;;11.90;99.90;;;;;;5069624;28;20023;-74
2022/11/08 06:16:16;;;;;;;17.65;4.50;;;11.90;99.90;;;;;;5053304;28;20021;-75
2022/11/08 06:18:42;;;;;;;21.45;4.07;;;11.90;99.90;;;;;;5055121;28;20024;-74
2022/11/08 06:21:16;;;;;;;34.42;5.30;;;11.90;99.90;;;;;;5073772;28;20046;-74
2022/11/08 06:23:42;;;;;;;13.27;3.53;;;11.90;99.90;;;;;;5073149;28;20047;-74
2022/11/08 06:26:08;;;;;;;29.27;4.05;;;11.90;99.90;;;;;;5055550;28;20531;-75
2022/11/08 06:28:34;;;;;;;20.55;4.78;;;11.80;99.90;;;;;;5073575;28;20430;-74
2022/11/08 06:31:01;;;;;;;27.80;5.30;;;11.70;99.90;;;;;;5072914;28;20112;-75
2022/11/08 06:33:27;;;;;;;20.10;5.13;;;11.70;99.90;;;;;;5073663;28;20029;-75
2022/11/08 06:35:53;;;;;;;25.38;3.53;;;11.60;99.90;;;;;;5073928;28;20028;-74
2022/11/08 06:38:19;;;;;;;24.27;4.82;;;11.60;99.90;;;;;;5055313;28;20033;-75
2022/11/08 06:40:44;;;;;;;28.55;4.55;;;11.60;99.90;;;;;;5051955;28;20029;-74
2022/11/08 06:43:10;;;;;;;25.10;5.47;;;11.60;99.90;;;;;;5052068;28;20035;-74
2022/11/08 06:45:37;;;;;;;19.17;3.95;;;11.60;99.90;;;;;;5053461;28;20033;-75
2022/11/08 06:48:04;;;;;;;25.42;5.70;;;11.60;99.90;;;;;;5052792;28;20040;-74
2022/11/08 06:50:31;;;;;;;16.83;4.25;;;11.50;99.90;;;;;;5053093;28;20025;-74
2022/11/08 06:53:02;;;;;;;24.35;4.60;;;11.50;99.90;;;;;;5051919;28;20031;-74
2022/11/08 06:55:29;;;;;;;18.05;4.60;;;11.40;99.90;;;;;;5053412;28;20032;-74
2022/11/08 06:57:54;;;;;;;21.65;5.45;;;11.30;99.90;;;;;;5051788;28;20017;-75
2022/11/08 07:00:21;;;;;;;27.00;4.65;;;11.30;99.90;;;;;;5052796;28;20039;-74
2022/11/08 07:02:55;;;;;;;34.53;6.13;;;11.30;99.90;;;;;;5053149;28;20028;-74
2022/11/08 07:05:20;;;;;;;24.27;4.88;;;11.30;99.90;;;;;;5053057;28;20492;-74
2022/11/08 07:07:52;;;;;;;19.73;5.28;;;11.30;99.90;;;;;;5052417;28;20079;-74
2022/11/08 07:10:26;;;;;;;25.13;6.10;;;11.20;99.90;;;;;;5053060;28;20369;-74
2022/11/08 07:13:04;;;;;;;23.88;5.55;;;11.20;99.90;;;;;;5053295;28;20036;-74
2022/11/08 07:15:30;;;;;;;14.48;4.53;;;11.10;99.90;;;;;;5051951;28;20031;-74
2022/11/08 07:18:09;;;;;;;25.25;5.20;;;11.10;99.90;;;;;;5051975;28;20447;-74
2022/11/08 07:20:35;;;;;;;28.10;5.50;;;11.10;99.90;;;;;;5053211;28;20413;-74
2022/11/08 07:23:01;;;;;;;21.23;6.13;;;11.10;99.90;;;;;;5052310;28;20041;-75
2022/11/08 07:25:27;;;;;;;19.90;5.63;;;11.10;99.90;;;;;;5056480;28;20112;-74
2022/11/08 07:27:58;;;;;;;21.75;5.30;;;11.10;99.90;;;;;;5056551;28;20062;-74
2022/11/08 07:30:24;;;;;;;15.43;4.60;;;11.10;99.90;;;;;;5056760;28;20032;-74
2022/11/08 07:32:50;;;;;;;22.23;5.05;;;11.10;99.90;;;;;;5056774;28;20142;-74
2022/11/08 07:35:16;;;;;;;19.02;4.55;;;11.00;99.90;;;;;;5056091;28;20483;-75
2022/11/08 07:37:42;;;;;;;12.57;4.63;;;11.00;99.90;;;;;;5056427;28;20053;-74
2022/11/08 07:40:08;;;;;;;19.63;4.43;;;11.00;99.90;;;;;;5071912;28;20039;-74
2022/11/08 07:42:38;;;;;;;24.35;5.82;;;10.90;99.90;;;;;;5057811;28;20125;-74
2022/11/08 07:45:05;;;;;;;19.00;5.30;;;10.90;99.90;;;;;;5076491;28;20028;-74
2022/11/08 07:47:31;;;;;;;22.73;5.40;;;10.90;99.90;;;;;;5059174;28;20031;-74
2022/11/08 07:49:56;;;;;;;22.35;5.25;;;10.90;99.90;;;;;;5076250;28;20108;-74
2022/11/08 07:52:22;;;;;;;27.33;5.20;;;10.90;99.90;;;;;;5075735;28;20017;-74
2022/11/08 07:54:48;;;;;;;35.28;6.63;;;10.90;99.90;;;;;;5076082;28;20055;-74
2022/11/08 07:57:16;;;;;;;21.55;5.53;;;10.90;99.90;;;;;;5076517;28;20060;-74
2022/11/08 07:59:41;;;;;;;30.30;5.53;;;10.80;99.90;;;;;;5064144;28;20032;-74
2022/11/08 08:02:11;;;;;;;20.15;6.88;;;10.80;99.90;;;;;;5054900;28;20116;-74
2022/11/08 08:04:37;;;;;;;16.75;4.80;;;10.80;99.90;;;;;;5055624;28;20061;-74
2022/11/08 08:07:03;;;;;;;20.80;5.32;;;10.80;99.90;;;;;;5055901;28;20036;-74
2022/11/08 08:09:28;;;;;;;27.80;5.28;;;10.80;99.90;;;;;;5055626;28;20476;-74
2022/11/08 08:11:54;;;;;;;19.15;5.22;;;10.80;99.90;;;;;;5056128;28;20029;-74
2022/11/08 08:14:20;;;;;;;24.55;4.90;;;10.90;99.90;;;;;;5055746;28;20060;-74
2022/11/08 08:16:45;;;;;;;16.13;5.25;;;10.90;99.90;;;;;;5055121;28;20125;-74
2022/11/08 08:19:11;;;;;;;24.42;5.18;;;11.00;99.90;;;;;;5055666;28;20036;-75
2022/11/08 08:21:36;;;;;;;22.80;5.60;;;11.10;99.90;;;;;;5055888;28;20024;-74
2022/11/08 08:24:02;;;;;;;24.25;5.65;;;11.20;99.90;;;;;;5054196;28;20108;-74
2022/11/08 08:26:27;;;;;;;21.67;5.63;;;11.30;99.90;;;;;;5054363;28;20032;-74
2022/11/08 08:28:53;;;;;;;28.30;5.05;;;11.30;99.90;;;;;;5054600;28;20104;-73
2022/11/08 08:31:19;;;;;;;19.80;5.00;;;11.40;99.90;;;;;;5055156;28;20159;-74
2022/11/08 08:33:44;;;;;;;17.77;5.25;;;11.50;99.90;;;;;;5053921;28;20025;-75
2022/11/08 08:36:10;;;;;;;11.95;4.30;;;11.60;99.90;;;;;;5053959;28;20104;-75
2022/11/08 08:38:36;;;;;;;32.65;4.25;;;11.60;99.90;;;;;;5055068;28;20423;-74
2022/11/08 08:41:02;;;;;;;20.85;5.10;;;11.80;99.90;;;;;;5055147;28;20369;-75
2022/11/08 08:43:29;;;;;;;17.42;4.15;;;11.80;99.90;;;;;;5053784;28;20047;-75
2022/11/08 08:46:00;;;;;;;19.17;4.10;;;11.90;99.90;;;;;;5054763;28;20029;-75
2022/11/08 08:48:25;;;;;;;15.35;4.28;;;11.90;99.90;;;;;;5053795;28;20121;-75
2022/11/08 08:50:51;;;;;;;13.15;4.30;;;11.90;99.90;;;;;;5054396;28;20104;-74
2022/11/08 08:53:16;;;;;;;20.45;4.32;;;12.00;99.90;;;;;;5053722;28;20031;-74
2022/11/08 08:55:42;;;;;;;22.77;4.55;;;12.00;99.90;;;;;;5053872;28;20021;-74
2022/11/08 08:58:09;;;;;;;21.20;4.53;;;12.00;99.90;;;;;;5056239;28;20025;-74
2022/11/08 09:00:35;;;;;;;18.05;4.22;;;12.00;99.90;;;;;;5055705;28;20029;-74
2022/11/08 09:03:03;;;;;;;15.38;3.50;;;12.10;99.90;;;;;;5056721;28;20029;-74
2022/11/08 09:05:29;;;;;;;21.58;5.10;;;12.10;99.90;;;;;;5054581;28;20033;-74
2022/11/08 09:07:55;;;;;;;15.77;4.20;;;12.20;99.90;;;;;;5054142;28;20044;-74
2022/11/08 09:10:21;;;;;;;14.57;4.32;;;12.30;99.90;;;;;;5053371;28;20016;-74
2022/11/08 09:12:49;;;;;;;21.33;4.10;;;12.30;99.90;;;;;;5052790;28;20135;-73
2022/11/08 09:15:16;;;;;;;18.40;4.10;;;12.30;99.90;;;;;;5054356;28;20017;-74
2022/11/08 09:17:42;;;;;;;13.30;3.33;;;12.40;99.90;;;;;;5054543;28;20078;-74
2022/11/08 09:20:08;;;;;;;13.63;3.00;;;12.30;99.90;;;;;;5054242;28;20063;-73
2022/11/08 09:22:34;;;;;;;19.52;3.97;;;12.30;99.90;;;;;;5054192;28;20060;-73
2022/11/08 09:25:00;;;;;;;15.43;3.63;;;12.30;99.90;;;;;;5053740;28;20028;-74
2022/11/08 09:27:30;;;;;;;13.60;2.95;;;12.20;99.90;;;;;;5054111;28;20040;-74
2022/11/08 09:29:56;;;;;;;13.25;2.92;;;12.20;99.90;;;;;;5054658;28;20051;-74
2022/11/08 09:32:23;;;;;;;13.77;3.55;;;12.20;99.90;;;;;;5054245;28;20045;-75
2022/11/08 09:34:50;;;;;;;15.68;3.63;;;12.20;99.90;;;;;;5053576;28;20021;-74
2022/11/08 09:37:16;;;;;;;14.38;3.17;;;12.20;99.90;;;;;;5053995;28;20024;-74
2022/11/08 09:39:41;;;;;;;11.75;3.45;;;12.20;99.90;;;;;;5054293;28;20400;-74
2022/11/08 09:42:26;;;;;;;9.95;2.83;;;12.20;99.90;;;;;;5054093;28;20476;-74
2022/11/08 09:45:10;;;;;;;14.77;3.58;;;12.20;99.90;;;;;;5054229;28;20032;-74
2022/11/08 09:47:37;;;;;;;;;;;12.30;99.90;;;;;;5053770;28;20034;-74
2022/11/08 09:50:11;;;;;;;11.07;2.42;;;12.30;99.90;;;;;;5070026;28;19908;-74
2022/11/08 09:52:38;;;;;;;;;;;12.30;99.90;;;;;;5074739;28;20063;-74
2022/11/08 09:55:10;;;;;;;11.43;3.42;;;12.30;99.90;;;;;;5055923;28;19905;-75
2022/11/08 09:57:59;;;;;;;14.02;2.72;;;12.30;99.90;;;;;;5055941;28;20026;-75
2022/11/08 10:00:25;;;;;;;8.73;2.38;;;12.40;99.90;;;;;;5073271;28;20028;-74
2022/11/08 10:02:50;;;;;;;12.23;2.33;;;12.40;99.90;;;;;;5055684;28;20039;-75
2022/11/08 10:05:18;;;;;;;13.73;3.42;;;12.50;99.90;;;;;;5066381;28;20415;-75
2022/11/08 10:08:17;;;;;;;9.50;3.03;;;12.50;99.90;;;;;;5053729;28;20094;-75
2022/11/08 10:10:54;;;;;;;10.98;2.30;;;12.60;99.90;;;;;;5054108;28;20021;-74
2022/11/08 10:13:41;;;;;;;13.90;2.65;;;12.70;99.90;;;;;;5054441;28;20350;-74
2022/11/08 10:16:26;;;;;;;17.15;2.70;;;12.80;99.90;;;;;;5053702;28;20032;-75
2022/11/08 10:19:09;;;;;;;9.80;2.53;;;12.90;99.90;;;;;;5051639;28;20040;-75
2022/11/08 10:22:12;;;;;;;9.90;1.80;;;13.00;99.90;;;;;;5053883;28;20159;-74
2022/11/08 10:24:51;;;;;;;23.45;3.78;;;13.20;99.90;;;;;;5052249;28;20018;-75
2022/11/08 10:27:41;;;;;;;9.55;2.65;;;13.30;99.90;;;;;;5065326;28;20021;-75
2022/11/08 10:30:21;;;;;;;7.15;2.20;;;13.40;99.90;;;;;;5041577;28;20396;-74
2022/11/08 10:32:52;;;;;;;13.95;3.17;;;13.50;99.90;;;;;;5051360;28;20028;-75
2022/11/08 10:35:43;;;;;;;8.15;2.05;;;13.60;99.90;;;;;;5053258;28;20484;-75
2022/11/08 10:38:17;;;;;;;8.00;2.05;;;13.70;99.90;;;;;;5044715;28;20036;-74
2022/11/08 10:40:50;;;;;;;6.40;2.53;;;13.70;99.90;;;;;;5092538;23;20049;-78
2022/11/08 10:43:28;;;;;;;8.02;2.30;;;13.70;99.90;;;;;;5075404;28;20103;-77
2022/11/08 10:45:53;;;;;;;14.05;1.90;;;13.80;99.90;;;;;;5057571;28;20021;-77
2022/11/08 10:48:19;;;;;;;15.23;2.13;;;13.80;99.90;;;;;;5075202;28;20098;-78
2022/11/08 10:50:48;;;;;;;8.07;2.05;;;13.90;99.90;;;;;;5074640;28;20025;-77
2022/11/08 10:53:28;;;;;;;5.22;1.80;;;13.80;99.90;;;;;;5075771;28;20028;-78
2022/11/08 10:56:03;;;;;;;7.97;2.08;;;13.80;99.90;;;;;;5076392;28;20024;-77
2022/11/08 10:58:36;;;;;;;7.93;2.03;;;13.80;99.90;;;;;;5074771;28;20021;-77
2022/11/08 11:01:02;;;;;;;;;;;13.80;99.90;;;;;;5079067;28;20423;-77
2022/11/08 11:03:29;;;;;;;8.27;1.95;;;13.90;99.90;;;;;;5078920;28;19912;-77
2022/11/08 11:06:03;;;;;;;10.57;2.35;;;13.90;99.90;;;;;;5099951;28;20020;-77
2022/11/08 11:08:29;;;;;;;6.18;1.65;;;13.90;99.90;;;;;;5099554;28;20053;-78
2022/11/08 11:10:55;;;;;;;9.45;2.25;;;14.00;99.90;;;;;;5099408;28;20102;-78
2022/11/08 11:13:23;;;;;;;7.63;1.55;;;14.00;99.90;;;;;;5081892;28;20024;-77
2022/11/08 11:15:51;;;;;;;12.93;3.38;;;14.00;99.90;;;;;;5102002;28;20016;-77
2022/11/08 11:18:46;;;;;;;10.48;1.75;;;14.10;99.90;;;;;;5100055;28;20024;-77
2022/11/08 11:21:20;;;;;;;9.52;1.90;;;14.20;99.90;;;;;;5060597;28;20025;-78
2022/11/08 11:23:55;;;;;;;7.85;2.33;;;14.30;99.90;;;;;;5059694;28;20096;-78
2022/11/08 11:26:30;;;;;;;12.75;2.17;;;14.20;99.90;;;;;;5059371;28;20082;-77
2022/11/08 11:28:59;;;;;;;9.80;2.33;;;14.20;99.90;;;;;;5059540;28;20108;-77
2022/11/08 11:31:25;;;;;;;14.07;2.28;;;14.20;99.90;;;;;;5071876;28;20025;-77
2022/11/08 11:33:50;;;;;;;6.55;1.73;;;14.20;99.90;;;;;;5079859;28;20100;-78
2022/11/08 11:36:20;;;;;;;6.63;1.90;;;14.20;99.90;;;;;;5078321;28;20029;-77
2022/11/08 11:39:08;;;;;;;7.57;2.15;;;14.20;99.90;;;;;;5079366;28;20025;-78
2022/11/08 11:41:52;;;;;;;7.50;1.92;;;14.10;99.90;;;;;;5079734;28;20074;-78
2022/11/08 11:44:24;;;;;;;5.78;1.77;;;14.10;99.90;;;;;;5078923;28;20016;-78
2022/11/08 11:46:57;;;;;;;8.30;2.40;;;14.10;99.90;;;;;;5078167;28;20043;-78
2022/11/08 11:49:24;;;;;;;10.13;1.65;;;14.00;99.90;;;;;;5078116;28;20024;-78
2022/11/08 11:51:54;;;;;;;6.30;2.00;;;14.10;99.90;;;;;;5079758;28;20036;-78
2022/11/08 11:54:25;;;;;;;8.07;1.67;;;14.10;99.90;;;;;;5079552;28;20024;-78
2022/11/08 11:56:59;;;;;;;6.25;1.90;;;14.00;99.90;;;;;;5079301;28;20104;-78
2022/11/08 11:59:55;;;;;;;7.45;1.73;;;14.00;99.90;;;;;;5078473;28;20111;-77
2022/11/08 12:02:54;;;;;;;9.77;2.28;;;14.00;99.90;;;;;;5078762;28;20035;-77
2022/11/08 12:05:48;;;;;;;9.80;1.83;;;14.10;99.90;;;;;;5080655;28;20468;-77
2022/11/08 12:08:28;;;;;;;7.20;2.17;;;14.00;99.90;;;;;;5077145;28;20034;-78
2022/11/08 12:10:59;;;;;;;10.40;2.53;;;14.00;99.90;;;;;;5060149;28;20028;-77
2022/11/08 12:13:36;;;;;;;11.15;1.73;;;14.00;99.90;;;;;;5079852;28;20028;-76
2022/11/08 12:16:27;;;;;;;8.52;1.83;;;14.10;99.90;;;;;;5059539;28;20138;-78
2022/11/08 12:19:14;;;;;;;5.63;1.70;;;14.10;99.90;;;;;;5061187;28;20020;-78
2022/11/08 12:22:14;;;;;;;5.63;1.83;;;14.20;99.90;;;;;;5079817;28;20476;-78
2022/11/08 12:25:08;;;;;;;4.78;1.73;;;14.30;99.90;;;;;;5061595;28;20395;-78
2022/11/08 12:27:33;;;;;;;;;;;14.50;99.90;;;;;;5060211;28;20078;-78
2022/11/08 12:30:10;;;;;;;5.35;1.95;;;14.60;99.90;;;;;;5076841;28;19908;-79
2022/11/08 12:33:00;;;;;;;6.97;2.38;;;14.60;99.90;;;;;;5076693;28;20020;-77
2022/11/08 12:35:59;;;;;;;13.55;2.00;;;14.60;99.90;;;;;;5077437;28;20029;-77
2022/11/08 12:38:38;;;;;;;6.57;2.80;;;14.50;99.90;;;;;;5077357;28;20045;-77
2022/11/08 12:41:14;;;;;;;9.80;2.47;;;14.60;99.90;;;;;;5059745;28;20372;-78
2022/11/08 12:44:14;;;;;;;5.63;1.83;;;14.70;99.90;;;;;;5076854;28;20035;-76
2022/11/08 12:47:04;;;;;;;18.10;2.03;;;14.60;99.90;;;;;;5059258;28;20024;-77
2022/11/08 12:49:49;;;;;;;5.78;1.83;;;14.70;99.90;;;;;;5079178;28;20436;-78
2022/11/08 12:52:26;;;;;;;4.85;1.48;;;14.60;99.90;;;;;;5062623;28;20419;-78
2022/11/08 12:55:01;;;;;;;8.05;1.98;;;14.70;99.90;;;;;;5082686;28;20077;-78
2022/11/08 12:57:29;;;;;;;8.85;1.90;;;14.80;99.90;;;;;;5083954;28;20501;-78
2022/11/08 13:00:04;;;;;;;5.90;2.30;;;14.80;99.90;;;;;;5079855;28;20029;-78
2022/11/08 13:02:34;;;;;;;13.75;2.00;;;14.60;99.90;;;;;;5082207;28;20033;-78
2022/11/08 13:05:06;;;;;;;5.93;1.95;;;14.50;99.90;;;;;;5083199;28;20032;-78
2022/11/08 13:07:41;;;;;;;8.60;2.30;;;14.30;99.90;;;;;;5061922;28;20035;-77
2022/11/08 13:10:12;;;;;;;7.05;2.20;;;14.20;99.90;;;;;;5080377;28;20052;-78